sensor_id;sensor_type;location;lat;lon;timestamp;temperature;humidity
20479;DHT22;10398;52.490;13.434;2024-03-22T00:00:42;10.60;99.90
20479;DHT22;10398;52.490;13.434;2024-03-22T00:03:08;10.70;99.90
20479;DHT22;10398;52.490;13.434;2024-03-22T00:05:33;10.70;99.90
20479;DHT22;10398;52.490;13.434;2024-03-22T00:07:59;10.60;99.90
20479;DHT22;10398;52.490;13.434;2024-03-22T00:10:25;10.60;99.90
20479;DHT22;10398;52.490;13.434;2024-03-22T00:12:50;10.60;99.90
20479;DHT22;10398;52.490;13.434;2024-03-22T00:15:16;10.60;99.90
20479;DHT22;10398;52.490;13.434;2024-03-22T00:17:45;10.60;99.90
20479;DHT22;10398;52.490;13.434;2024-03-22T00:20:10;10.60;99.90
20479;DHT22;10398;52.490;13.434;2024-03-22T00:22:36;10.60;99.90
20479;DHT22;10398;52.490;13.434;2024-03-22T00:25:02;10.60;99.90
20479;DHT22;10398;52.490;13.434;2024-03-22T00:27:28;10.60;99.90
20479;DHT22;10398;52.490;13.434;2024-03-22T00:29:53;10.60;99.90
20479;DHT22;10398;52.490;13.434;2024-03-22T00:32:19;10.50;99.90
20479;DHT22;10398;52.490;13.434;2024-03-22T00:34:45;10.50;99.90
20479;DHT22;10398;52.490;13.434;2024-03-22T00:37:11;10.50;99.90
20479;DHT22;10398;52.490;13.434;2024-03-22T00:39:37;10.40;99.90
20479;DHT22;10398;52.490;13.434;2024-03-22T00:42:02;10.40;99.90
20479;DHT22;10398;52.490;13.434;2024-03-22T00:44:28;10.40;99.90
20479;DHT22;10398;52.490;13.434;2024-03-22T00:46:54;10.50;99.90
20479;DHT22;10398;52.490;13.434;2024-03-22T00:49:19;10.50;99.90
20479;DHT22;10398;52.490;13.434;2024-03-22T00:51:45;10.40;99.90
20479;DHT22;10398;52.490;13.434;2024-03-22T00:54:12;10.40;99.90
20479;DHT22;10398;52.490;13.434;2024-03-22T00:56:37;10.40;99.90
20479;DHT22;10398;52.490;13.434;2024-03-22T00:59:03;10.50;99.90
20479;DHT22;10398;52.490;13.434;2024-03-22T01:01:29;10.50;99.90
20479;DHT22;10398;52.490;13.434;2024-03-22T01:03:54;10.40;99.90
20479;DHT22;10398;52.490;13.434;2024-03-22T01:06:20;10.40;99.90
20479;DHT22;10398;52.490;13.434;2024-03-22T01:08:50;10.40;99.90
20479;DHT22;10398;52.490;13.434;2024-03-22T01:11:17;10.30;99.90
20479;DHT22;10398;52.490;13.434;2024-03-22T01:13:43;10.30;99.90
20479;DHT22;10398;52.490;13.434;2024-03-22T01:16:08;10.30;99.90
20479;DHT22;10398;52.490;13.434;2024-03-22T01:18:38;10.30;99.90
20479;DHT22;10398;52.490;13.434;2024-03-22T01:21:04;10.30;99.90
20479;DHT22;10398;52.490;13.434;2024-03-22T01:23:30;10.30;99.90
20479;DHT22;10398;52.490;13.434;2024-03-22T01:25:56;10.30;99.90
20479;DHT22;10398;52.490;13.434;2024-03-22T01:28:22;10.30;99.90
20479;DHT22;10398;52.490;13.434;2024-03-22T01:30:48;10.30;99.90
20479;DHT22;10398;52.490;13.434;2024-03-22T01:33:13;10.30;99.90
20479;DHT22;10398;52.490;13.434;2024-03-22T01:35:39;10.30;99.90
20479;DHT22;10398;52.490;13.434;2024-03-22T01:38:05;10.30;99.90
20479;DHT22;10398;52.490;13.434;2024-03-22T01:40:30;10.30;99.90
20479;DHT22;10398;52.490;13.434;2024-03-22T01:42:57;10.30;99.90
20479;DHT22;10398;52.490;13.434;2024-03-22T01:45:23;10.30;99.90
20479;DHT22;10398;52.490;13.434;2024-03-22T01:47:51;10.40;99.90
20479;DHT22;10398;52.490;13.434;2024-03-22T01:50:18;10.40;99.90
20479;DHT22;10398;52.490;13.434;2024-03-22T01:52:43;10.30;99.90
20479;DHT22;10398;52.490;13.434;2024-03-22T01:55:09;10.30;99.90
20479;DHT22;10398;52.490;13.434;2024-03-22T01:57:35;10.20;99.90
20479;DHT22;10398;52.490;13.434;2024-03-22T02:00:01;10.20;99.90
20479;DHT22;10398;52.490;13.434;2024-03-22T02:02:27;10.20;99.90
20479;DHT22;10398;52.490;13.434;2024-03-22T02:04:52;10.20;99.90
20479;DHT22;10398;52.490;13.434;2024-03-22T02:07:18;10.20;99.90
20479;DHT22;10398;52.490;13.434;2024-03-22T02:09:44;10.20;99.90
20479;DHT22;10398;52.490;13.434;2024-03-22T02:12:10;10.30;99.90
20479;DHT22;10398;52.490;13.434;2024-03-22T02:14:36;10.20;99.90
20479;DHT22;10398;52.490;13.434;2024-03-22T02:17:02;10.20;99.90
20479;DHT22;10398;52.490;13.434;2024-03-22T02:19:27;10.20;99.90
20479;DHT22;10398;52.490;13.434;2024-03-22T02:21:53;10.20;99.90
20479;DHT22;10398;52.490;13.434;2024-03-22T02:24:18;10.10;99.90
20479;DHT22;10398;52.490;13.434;2024-03-22T02:26:44;10.10;99.90
20479;DHT22;10398;52.490;13.434;2024-03-22T02:29:10;10.20;99.90
20479;DHT22;10398;52.490;13.434;2024-03-22T02:31:35;10.20;99.90
20479;DHT22;10398;52.490;13.434;2024-03-22T02:34:01;10.10;99.90
20479;DHT22;10398;52.490;13.434;2024-03-22T02:36:28;10.20;99.90
20479;DHT22;10398;52.490;13.434;2024-03-22T02:38:54;10.20;99.90
20479;DHT22;10398;52.490;13.434;2024-03-22T02:41:20;10.10;99.90
20479;DHT22;10398;52.490;13.434;2024-03-22T02:43:46;10.20;99.90
20479;DHT22;10398;52.490;13.434;2024-03-22T02:46:11;10.10;99.90
20479;DHT22;10398;52.490;13.434;2024-03-22T02:48:37;10.10;99.90
20479;DHT22;10398;52.490;13.434;2024-03-22T02:51:03;10.00;99.90
20479;DHT22;10398;52.490;13.434;2024-03-22T02:53:28;10.00;99.90
20479;DHT22;10398;52.490;13.434;2024-03-22T02:55:54;10.00;99.90
20479;DHT22;10398;52.490;13.434;2024-03-22T02:58:20;10.00;99.90
20479;DHT22;10398;52.490;13.434;2024-03-22T03:00:46;10.00;99.90
20479;DHT22;10398;52.490;13.434;2024-03-22T03:03:12;9.80;99.90
20479;DHT22;10398;52.490;13.434;2024-03-22T03:05:38;9.90;99.90
20479;DHT22;10398;52.490;13.434;2024-03-22T03:08:04;9.90;99.90
20479;DHT22;10398;52.490;13.434;2024-03-22T03:10:30;9.90;99.90
20479;DHT22;10398;52.490;13.434;2024-03-22T03:12:55;9.90;99.90
20479;DHT22;10398;52.490;13.434;2024-03-22T03:15:21;9.90;99.90
20479;DHT22;10398;52.490;13.434;2024-03-22T03:17:47;10.00;99.90
20479;DHT22;10398;52.490;13.434;2024-03-22T03:20:12;10.00;99.90
20479;DHT22;10398;52.490;13.434;2024-03-22T03:22:42;9.90;99.90
20479;DHT22;10398;52.490;13.434;2024-03-22T03:25:08;10.00;99.90
20479;DHT22;10398;52.490;13.434;2024-03-22T03:27:34;9.90;99.90
20479;DHT22;10398;52.490;13.434;2024-03-22T03:29:59;10.00;99.90
20479;DHT22;10398;52.490;13.434;2024-03-22T03:32:26;9.90;99.90
20479;DHT22;10398;52.490;13.434;2024-03-22T03:34:51;9.90;99.90
20479;DHT22;10398;52.490;13.434;2024-03-22T03:37:17;9.90;99.90
20479;DHT22;10398;52.490;13.434;2024-03-22T03:39:43;9.90;99.90
20479;DHT22;10398;52.490;13.434;2024-03-22T03:42:08;9.80;99.90
20479;DHT22;10398;52.490;13.434;2024-03-22T03:44:34;9.80;99.90
20479;DHT22;10398;52.490;13.434;2024-03-22T03:47:03;9.90;99.90
20479;DHT22;10398;52.490;13.434;2024-03-22T03:49:29;9.90;99.90
20479;DHT22;10398;52.490;13.434;2024-03-22T03:51:54;9.90;99.90
20479;DHT22;10398;52.490;13.434;2024-03-22T03:54:20;10.00;99.90
20479;DHT22;10398;52.490;13.434;2024-03-22T03:56:45;10.00;99.90
20479;DHT22;10398;52.490;13.434;2024-03-22T03:59:11;10.10;99.90
20479;DHT22;10398;52.490;13.434;2024-03-22T04:01:37;10.10;99.90
20479;DHT22;10398;52.490;13.434;2024-03-22T04:04:03;10.00;99.90
20479;DHT22;10398;52.490;13.434;2024-03-22T04:06:29;10.00;99.90
20479;DHT22;10398;52.490;13.434;2024-03-22T04:08:54;10.00;99.90
20479;DHT22;10398;52.490;13.434;2024-03-22T04:11:20;10.00;99.90
20479;DHT22;10398;52.490;13.434;2024-03-22T04:13:46;10.10;99.90
20479;DHT22;10398;52.490;13.434;2024-03-22T04:16:13;10.00;99.90
20479;DHT22;10398;52.490;13.434;2024-03-22T04:18:38;9.80;99.90
20479;DHT22;10398;52.490;13.434;2024-03-22T04:21:04;9.70;99.90
20479;DHT22;10398;52.490;13.434;2024-03-22T04:23:30;9.70;99.90
20479;DHT22;10398;52.490;13.434;2024-03-22T04:25:57;9.70;99.90
20479;DHT22;10398;52.490;13.434;2024-03-22T04:28:27;9.70;99.90
20479;DHT22;10398;52.490;13.434;2024-03-22T04:31:03;9.80;99.90
20479;DHT22;10398;52.490;13.434;2024-03-22T04:33:30;9.80;99.90
20479;DHT22;10398;52.490;13.434;2024-03-22T04:35:57;9.80;99.90
20479;DHT22;10398;52.490;13.434;2024-03-22T04:38:24;9.80;99.90
20479;DHT22;10398;52.490;13.434;2024-03-22T04:40:50;9.70;99.90
20479;DHT22;10398;52.490;13.434;2024-03-22T04:43:16;9.60;99.90
20479;DHT22;10398;52.490;13.434;2024-03-22T04:45:43;9.50;99.90
20479;DHT22;10398;52.490;13.434;2024-03-22T04:48:09;9.30;99.90
20479;DHT22;10398;52.490;13.434;2024-03-22T04:50:34;9.30;99.90
20479;DHT22;10398;52.490;13.434;2024-03-22T04:53:01;9.30;99.90
20479;DHT22;10398;52.490;13.434;2024-03-22T04:55:26;9.40;99.90
20479;DHT22;10398;52.490;13.434;2024-03-22T04:57:52;9.40;99.90
20479;DHT22;10398;52.490;13.434;2024-03-22T05:00:18;9.50;99.90
20479;DHT22;10398;52.490;13.434;2024-03-22T05:02:44;9.70;99.90
20479;DHT22;10398;52.490;13.434;2024-03-22T05:05:09;9.80;99.90
20479;DHT22;10398;52.490;13.434;2024-03-22T05:07:35;9.70;99.90
20479;DHT22;10398;52.490;13.434;2024-03-22T05:10:01;9.60;99.90
20479;DHT22;10398;52.490;13.434;2024-03-22T05:12:27;9.70;99.90
20479;DHT22;10398;52.490;13.434;2024-03-22T05:14:53;9.60;99.90
20479;DHT22;10398;52.490;13.434;2024-03-22T05:17:18;9.70;99.90
20479;DHT22;10398;52.490;13.434;2024-03-22T05:19:44;9.80;99.90
20479;DHT22;10398;52.490;13.434;2024-03-22T05:22:10;9.80;99.90
20479;DHT22;10398;52.490;13.434;2024-03-22T05:24:35;9.90;99.90
20479;DHT22;10398;52.490;13.434;2024-03-22T05:27:01;9.90;99.90
20479;DHT22;10398;52.490;13.434;2024-03-22T05:29:27;9.90;99.90
20479;DHT22;10398;52.490;13.434;2024-03-22T05:31:52;10.00;99.90
20479;DHT22;10398;52.490;13.434;2024-03-22T05:34:18;10.00;99.90
20479;DHT22;10398;52.490;13.434;2024-03-22T05:36:45;10.10;99.90
20479;DHT22;10398;52.490;13.434;2024-03-22T05:39:11;10.10;99.90
20479;DHT22;10398;52.490;13.434;2024-03-22T05:41:37;9.90;99.90
20479;DHT22;10398;52.490;13.434;2024-03-22T05:44:03;10.00;99.90
20479;DHT22;10398;52.490;13.434;2024-03-22T05:46:29;10.00;99.90
20479;DHT22;10398;52.490;13.434;2024-03-22T05:48:56;10.00;99.90
20479;DHT22;10398;52.490;13.434;2024-03-22T05:51:22;10.00;99.90
20479;DHT22;10398;52.490;13.434;2024-03-22T05:53:48;10.10;99.90
20479;DHT22;10398;52.490;13.434;2024-03-22T05:56:13;10.00;99.90
20479;DHT22;10398;52.490;13.434;2024-03-22T05:58:40;10.10;99.90
20479;DHT22;10398;52.490;13.434;2024-03-22T06:01:05;10.10;99.90
20479;DHT22;10398;52.490;13.434;2024-03-22T06:03:31;10.10;99.90
20479;DHT22;10398;52.490;13.434;2024-03-22T06:05:59;10.10;99.90
20479;DHT22;10398;52.490;13.434;2024-03-22T06:08:28;10.10;99.90
20479;DHT22;10398;52.490;13.434;2024-03-22T06:10:55;10.20;99.90
20479;DHT22;10398;52.490;13.434;2024-03-22T06:13:21;10.10;99.90
20479;DHT22;10398;52.490;13.434;2024-03-22T06:15:49;10.20;99.90
20479;DHT22;10398;52.490;13.434;2024-03-22T06:18:14;10.10;99.90
20479;DHT22;10398;52.490;13.434;2024-03-22T06:20:41;10.20;99.90
20479;DHT22;10398;52.490;13.434;2024-03-22T06:23:07;10.20;99.90
20479;DHT22;10398;52.490;13.434;2024-03-22T06:25:33;10.20;99.90
20479;DHT22;10398;52.490;13.434;2024-03-22T06:27:59;10.20;99.90
20479;DHT22;10398;52.490;13.434;2024-03-22T06:30:25;10.20;99.90
20479;DHT22;10398;52.490;13.434;2024-03-22T06:32:50;10.20;99.90
20479;DHT22;10398;52.490;13.434;2024-03-22T06:35:16;10.00;99.90
20479;DHT22;10398;52.490;13.434;2024-03-22T06:37:41;10.10;99.90
20479;DHT22;10398;52.490;13.434;2024-03-22T06:40:09;10.10;99.90
20479;DHT22;10398;52.490;13.434;2024-03-22T06:42:35;10.20;99.90
20479;DHT22;10398;52.490;13.434;2024-03-22T06:45:01;10.30;99.90
20479;DHT22;10398;52.490;13.434;2024-03-22T06:47:27;10.30;99.90
20479;DHT22;10398;52.490;13.434;2024-03-22T06:49:53;10.40;99.90
20479;DHT22;10398;52.490;13.434;2024-03-22T06:52:18;10.40;99.90
20479;DHT22;10398;52.490;13.434;2024-03-22T06:54:45;10.50;99.90
20479;DHT22;10398;52.490;13.434;2024-03-22T06:57:11;10.50;99.90
20479;DHT22;10398;52.490;13.434;2024-03-22T06:59:37;10.50;99.90
20479;DHT22;10398;52.490;13.434;2024-03-22T07:02:02;10.30;99.90
20479;DHT22;10398;52.490;13.434;2024-03-22T07:04:28;10.30;99.90
20479;DHT22;10398;52.490;13.434;2024-03-22T07:06:53;10.40;99.90
20479;DHT22;10398;52.490;13.434;2024-03-22T07:09:19;10.40;99.90
20479;DHT22;10398;52.490;13.434;2024-03-22T07:11:45;10.40;99.90
20479;DHT22;10398;52.490;13.434;2024-03-22T07:14:10;10.40;99.90
20479;DHT22;10398;52.490;13.434;2024-03-22T07:16:36;10.40;99.90
20479;DHT22;10398;52.490;13.434;2024-03-22T07:19:02;10.50;99.90
20479;DHT22;10398;52.490;13.434;2024-03-22T07:21:29;10.50;99.90
20479;DHT22;10398;52.490;13.434;2024-03-22T07:23:55;10.60;99.90
20479;DHT22;10398;52.490;13.434;2024-03-22T07:26:20;10.60;99.90
20479;DHT22;10398;52.490;13.434;2024-03-22T07:28:46;10.60;99.90
20479;DHT22;10398;52.490;13.434;2024-03-22T07:31:12;10.60;99.90
20479;DHT22;10398;52.490;13.434;2024-03-22T07:33:39;10.60;99.90
20479;DHT22;10398;52.490;13.434;2024-03-22T07:36:05;10.70;99.90
20479;DHT22;10398;52.490;13.434;2024-03-22T07:38:31;10.70;99.90
20479;DHT22;10398;52.490;13.434;2024-03-22T07:40:56;10.70;99.90
20479;DHT22;10398;52.490;13.434;2024-03-22T07:43:22;10.70;99.90
20479;DHT22;10398;52.490;13.434;2024-03-22T07:45:48;10.70;99.90
20479;DHT22;10398;52.490;13.434;2024-03-22T07:48:14;10.80;99.90
20479;DHT22;10398;52.490;13.434;2024-03-22T07:50:40;10.80;99.90
20479;DHT22;10398;52.490;13.434;2024-03-22T07:53:05;10.90;99.90
20479;DHT22;10398;52.490;13.434;2024-03-22T07:55:31;10.80;99.90
20479;DHT22;10398;52.490;13.434;2024-03-22T07:57:56;10.90;99.90
20479;DHT22;10398;52.490;13.434;2024-03-22T08:00:23;11.00;99.90
20479;DHT22;10398;52.490;13.434;2024-03-22T08:02:51;11.00;99.90
20479;DHT22;10398;52.490;13.434;2024-03-22T08:05:16;11.00;99.90
20479;DHT22;10398;52.490;13.434;2024-03-22T08:07:42;11.00;99.90
20479;DHT22;10398;52.490;13.434;2024-03-22T08:10:09;11.10;99.90
20479;DHT22;10398;52.490;13.434;2024-03-22T08:12:35;11.10;99.90
20479;DHT22;10398;52.490;13.434;2024-03-22T08:15:00;11.10;99.90
20479;DHT22;10398;52.490;13.434;2024-03-22T08:17:26;11.10;99.90
20479;DHT22;10398;52.490;13.434;2024-03-22T08:19:51;11.10;99.90
20479;DHT22;10398;52.490;13.434;2024-03-22T08:22:17;11.00;99.90
20479;DHT22;10398;52.490;13.434;2024-03-22T08:24:43;11.10;99.90
20479;DHT22;10398;52.490;13.434;2024-03-22T08:27:08;11.10;99.90
20479;DHT22;10398;52.490;13.434;2024-03-22T08:29:34;11.20;99.90
20479;DHT22;10398;52.490;13.434;2024-03-22T08:31:59;11.30;99.90
20479;DHT22;10398;52.490;13.434;2024-03-22T08:34:28;11.20;99.90
20479;DHT22;10398;52.490;13.434;2024-03-22T08:36:54;11.30;99.90
20479;DHT22;10398;52.490;13.434;2024-03-22T08:39:19;11.40;99.90
20479;DHT22;10398;52.490;13.434;2024-03-22T08:41:45;11.40;99.90
20479;DHT22;10398;52.490;13.434;2024-03-22T08:44:11;11.40;99.90
20479;DHT22;10398;52.490;13.434;2024-03-22T08:46:37;11.30;99.90
20479;DHT22;10398;52.490;13.434;2024-03-22T08:49:02;11.20;99.90
20479;DHT22;10398;52.490;13.434;2024-03-22T08:51:28;11.40;99.90
20479;DHT22;10398;52.490;13.434;2024-03-22T08:53:55;11.40;99.90
20479;DHT22;10398;52.490;13.434;2024-03-22T08:56:20;11.50;99.90
20479;DHT22;10398;52.490;13.434;2024-03-22T08:58:46;11.50;99.90
20479;DHT22;10398;52.490;13.434;2024-03-22T09:01:11;11.40;99.90
20479;DHT22;10398;52.490;13.434;2024-03-22T09:03:37;11.50;99.90
20479;DHT22;10398;52.490;13.434;2024-03-22T09:06:03;11.60;99.90
20479;DHT22;10398;52.490;13.434;2024-03-22T09:08:29;11.50;99.90
20479;DHT22;10398;52.490;13.434;2024-03-22T09:10:55;11.50;99.90
20479;DHT22;10398;52.490;13.434;2024-03-22T09:13:20;11.60;99.90
20479;DHT22;10398;52.490;13.434;2024-03-22T09:15:46;11.60;99.90
20479;DHT22;10398;52.490;13.434;2024-03-22T09:18:12;11.60;99.90
20479;DHT22;10398;52.490;13.434;2024-03-22T09:20:38;11.80;99.90
20479;DHT22;10398;52.490;13.434;2024-03-22T09:23:04;11.90;99.90
20479;DHT22;10398;52.490;13.434;2024-03-22T09:25:29;12.00;99.90
20479;DHT22;10398;52.490;13.434;2024-03-22T09:27:55;12.10;99.90
20479;DHT22;10398;52.490;13.434;2024-03-22T09:30:20;12.20;99.90
20479;DHT22;10398;52.490;13.434;2024-03-22T09:32:47;12.20;99.90
20479;DHT22;10398;52.490;13.434;2024-03-22T09:35:13;12.20;99.90
20479;DHT22;10398;52.490;13.434;2024-03-22T09:37:43;12.40;99.90
20479;DHT22;10398;52.490;13.434;2024-03-22T09:40:09;12.40;99.90
20479;DHT22;10398;52.490;13.434;2024-03-22T09:42:37;12.40;99.90
20479;DHT22;10398;52.490;13.434;2024-03-22T09:45:08;12.30;99.90
20479;DHT22;10398;52.490;13.434;2024-03-22T09:47:34;12.40;99.90
20479;DHT22;10398;52.490;13.434;2024-03-22T09:50:01;12.40;99.90
20479;DHT22;10398;52.490;13.434;2024-03-22T09:52:28;12.40;99.90
20479;DHT22;10398;52.490;13.434;2024-03-22T09:54:55;12.50;99.90
20479;DHT22;10398;52.490;13.434;2024-03-22T09:57:21;12.40;99.90
20479;DHT22;10398;52.490;13.434;2024-03-22T09:59:48;12.40;99.90
20479;DHT22;10398;52.490;13.434;2024-03-22T10:02:13;12.30;99.90
20479;DHT22;10398;52.490;13.434;2024-03-22T10:04:41;12.30;99.90
20479;DHT22;10398;52.490;13.434;2024-03-22T10:07:07;12.40;99.90
20479;DHT22;10398;52.490;13.434;2024-03-22T10:09:36;12.50;99.90
20479;DHT22;10398;52.490;13.434;2024-03-22T10:12:02;12.40;99.90
20479;DHT22;10398;52.490;13.434;2024-03-22T10:14:29;12.50;99.90
20479;DHT22;10398;52.490;13.434;2024-03-22T10:16:56;12.50;99.90
20479;DHT22;10398;52.490;13.434;2024-03-22T10:19:22;12.60;99.90
20479;DHT22;10398;52.490;13.434;2024-03-22T10:22:02;12.60;99.90
20479;DHT22;10398;52.490;13.434;2024-03-22T10:24:28;12.70;99.90
20479;DHT22;10398;52.490;13.434;2024-03-22T10:26:54;12.80;99.90
20479;DHT22;10398;52.490;13.434;2024-03-22T10:29:20;12.80;99.90
20479;DHT22;10398;52.490;13.434;2024-03-22T10:31:54;12.90;99.90
20479;DHT22;10398;52.490;13.434;2024-03-22T10:34:25;13.00;99.90
20479;DHT22;10398;52.490;13.434;2024-03-22T10:36:50;13.10;99.90
20479;DHT22;10398;52.490;13.434;2024-03-22T10:39:19;13.20;99.90
20479;DHT22;10398;52.490;13.434;2024-03-22T10:41:48;13.20;99.90
20479;DHT22;10398;52.490;13.434;2024-03-22T10:44:14;13.20;99.90
20479;DHT22;10398;52.490;13.434;2024-03-22T10:46:47;13.30;99.90
20479;DHT22;10398;52.490;13.434;2024-03-22T10:49:16;13.40;99.90
20479;DHT22;10398;52.490;13.434;2024-03-22T10:51:52;13.50;99.90
20479;DHT22;10398;52.490;13.434;2024-03-22T10:54:22;13.60;99.90
20479;DHT22;10398;52.490;13.434;2024-03-22T10:56:51;13.80;99.90
20479;DHT22;10398;52.490;13.434;2024-03-22T10:59:21;14.00;99.90
20479;DHT22;10398;52.490;13.434;2024-03-22T11:01:48;14.20;99.90
20479;DHT22;10398;52.490;13.434;2024-03-22T11:04:21;14.30;99.90
20479;DHT22;10398;52.490;13.434;2024-03-22T11:06:49;14.40;99.90
20479;DHT22;10398;52.490;13.434;2024-03-22T11:09:21;14.40;99.90
20479;DHT22;10398;52.490;13.434;2024-03-22T11:11:48;14.40;99.90
20479;DHT22;10398;52.490;13.434;2024-03-22T11:14:14;14.40;99.90
20479;DHT22;10398;52.490;13.434;2024-03-22T11:16:43;14.30;99.90
20479;DHT22;10398;52.490;13.434;2024-03-22T11:19:10;14.40;99.90
20479;DHT22;10398;52.490;13.434;2024-03-22T11:21:35;14.30;99.90
20479;DHT22;10398;52.490;13.434;2024-03-22T11:24:01;14.20;99.90
20479;DHT22;10398;52.490;13.434;2024-03-22T11:26:27;14.20;99.90
20479;DHT22;10398;52.490;13.434;2024-03-22T11:28:53;14.10;99.90
20479;DHT22;10398;52.490;13.434;2024-03-22T11:31:18;14.10;99.90
20479;DHT22;10398;52.490;13.434;2024-03-22T11:33:47;14.00;99.90
20479;DHT22;10398;52.490;13.434;2024-03-22T11:36:14;13.90;99.90
20479;DHT22;10398;52.490;13.434;2024-03-22T11:38:39;13.80;99.90
20479;DHT22;10398;52.490;13.434;2024-03-22T11:41:05;13.80;99.90
20479;DHT22;10398;52.490;13.434;2024-03-22T11:43:32;13.80;99.90
20479;DHT22;10398;52.490;13.434;2024-03-22T11:45:58;13.80;99.90
20479;DHT22;10398;52.490;13.434;2024-03-22T11:48:24;13.80;99.90
20479;DHT22;10398;52.490;13.434;2024-03-22T11:50:50;13.80;99.90
20479;DHT22;10398;52.490;13.434;2024-03-22T11:53:16;13.80;99.90
20479;DHT22;10398;52.490;13.434;2024-03-22T11:55:42;13.80;99.90
20479;DHT22;10398;52.490;13.434;2024-03-22T11:58:11;13.80;99.90
20479;DHT22;10398;52.490;13.434;2024-03-22T12:00:37;13.80;99.90
20479;DHT22;10398;52.490;13.434;2024-03-22T12:03:05;13.70;99.90
20479;DHT22;10398;52.490;13.434;2024-03-22T12:05:32;13.70;99.90
20479;DHT22;10398;52.490;13.434;2024-03-22T12:07:57;13.80;99.90
20479;DHT22;10398;52.490;13.434;2024-03-22T12:10:23;13.70;99.90
20479;DHT22;10398;52.490;13.434;2024-03-22T12:12:49;13.70;99.90
20479;DHT22;10398;52.490;13.434;2024-03-22T12:15:15;13.70;99.90
20479;DHT22;10398;52.490;13.434;2024-03-22T12:17:41;13.70;99.90
20479;DHT22;10398;52.490;13.434;2024-03-22T12:20:09;13.70;99.90
20479;DHT22;10398;52.490;13.434;2024-03-22T12:22:35;13.70;99.90
20479;DHT22;10398;52.490;13.434;2024-03-22T12:25:01;13.60;99.90
20479;DHT22;10398;52.490;13.434;2024-03-22T12:27:27;13.60;99.90
20479;DHT22;10398;52.490;13.434;2024-03-22T12:29:52;13.50;99.90
20479;DHT22;10398;52.490;13.434;2024-03-22T12:32:18;13.40;99.90
20479;DHT22;10398;52.490;13.434;2024-03-22T12:34:44;13.40;99.90
20479;DHT22;10398;52.490;13.434;2024-03-22T12:37:10;13.40;99.90
20479;DHT22;10398;52.490;13.434;2024-03-22T12:39:35;13.40;99.90
20479;DHT22;10398;52.490;13.434;2024-03-22T12:42:02;13.40;99.90
20479;DHT22;10398;52.490;13.434;2024-03-22T12:44:28;13.40;99.90
20479;DHT22;10398;52.490;13.434;2024-03-22T12:46:54;13.40;99.90
20479;DHT22;10398;52.490;13.434;2024-03-22T12:49:20;13.40;99.90
20479;DHT22;10398;52.490;13.434;2024-03-22T12:51:46;13.40;99.90
20479;DHT22;10398;52.490;13.434;2024-03-22T12:54:11;13.40;99.90
20479;DHT22;10398;52.490;13.434;2024-03-22T12:56:40;13.50;99.90
20479;DHT22;10398;52.490;13.434;2024-03-22T12:59:05;13.40;99.90
20479;DHT22;10398;52.490;13.434;2024-03-22T13:01:32;13.30;99.90
20479;DHT22;10398;52.490;13.434;2024-03-22T13:03:58;13.30;99.90
20479;DHT22;10398;52.490;13.434;2024-03-22T13:06:24;13.20;99.90
20479;DHT22;10398;52.490;13.434;2024-03-22T13:08:50;13.10;99.90
20479;DHT22;10398;52.490;13.434;2024-03-22T13:11:16;13.10;99.90
20479;DHT22;10398;52.490;13.434;2024-03-22T13:13:42;13.10;99.90
20479;DHT22;10398;52.490;13.434;2024-03-22T13:16:09;13.10;99.90
20479;DHT22;10398;52.490;13.434;2024-03-22T13:18:37;13.10;99.90
20479;DHT22;10398;52.490;13.434;2024-03-22T13:21:03;13.00;99.90
20479;DHT22;10398;52.490;13.434;2024-03-22T13:23:30;12.90;99.90
20479;DHT22;10398;52.490;13.434;2024-03-22T13:25:56;12.90;99.90
20479;DHT22;10398;52.490;13.434;2024-03-22T13:28:24;12.90;99.90
20479;DHT22;10398;52.490;13.434;2024-03-22T13:31:02;12.90;99.90
20479;DHT22;10398;52.490;13.434;2024-03-22T13:33:31;12.80;99.90
20479;DHT22;10398;52.490;13.434;2024-03-22T13:35:57;12.90;99.90
20479;DHT22;10398;52.490;13.434;2024-03-22T13:38:22;12.80;99.90
20479;DHT22;10398;52.490;13.434;2024-03-22T13:40:58;12.80;99.90
20479;DHT22;10398;52.490;13.434;2024-03-22T13:43:28;12.80;99.90
20479;DHT22;10398;52.490;13.434;2024-03-22T13:45:54;12.80;99.90
20479;DHT22;10398;52.490;13.434;2024-03-22T13:48:21;12.80;99.90
20479;DHT22;10398;52.490;13.434;2024-03-22T13:50:51;12.80;99.90
20479;DHT22;10398;52.490;13.434;2024-03-22T13:53:17;12.80;99.90
20479;DHT22;10398;52.490;13.434;2024-03-22T13:55:43;12.80;99.90
20479;DHT22;10398;52.490;13.434;2024-03-22T13:58:08;12.90;99.90
20479;DHT22;10398;52.490;13.434;2024-03-22T14:00:34;12.90;99.90
20479;DHT22;10398;52.490;13.434;2024-03-22T14:03:01;13.00;99.90
20479;DHT22;10398;52.490;13.434;2024-03-22T14:05:27;13.00;99.90
20479;DHT22;10398;52.490;13.434;2024-03-22T14:07:53;13.00;99.90
20479;DHT22;10398;52.490;13.434;2024-03-22T14:10:18;13.00;99.90
20479;DHT22;10398;52.490;13.434;2024-03-22T14:12:45;13.10;99.90
20479;DHT22;10398;52.490;13.434;2024-03-22T14:15:12;13.10;99.90
20479;DHT22;10398;52.490;13.434;2024-03-22T14:17:38;13.10;99.90
20479;DHT22;10398;52.490;13.434;2024-03-22T14:20:05;13.10;99.90
20479;DHT22;10398;52.490;13.434;2024-03-22T14:22:43;13.10;99.90
20479;DHT22;10398;52.490;13.434;2024-03-22T14:25:09;13.10;99.90
20479;DHT22;10398;52.490;13.434;2024-03-22T14:27:35;13.10;99.90
20479;DHT22;10398;52.490;13.434;2024-03-22T14:30:02;13.20;99.90
20479;DHT22;10398;52.490;13.434;2024-03-22T14:32:31;13.10;99.90
20479;DHT22;10398;52.490;13.434;2024-03-22T14:34:57;13.10;99.90
20479;DHT22;10398;52.490;13.434;2024-03-22T14:37:23;13.10;99.90
20479;DHT22;10398;52.490;13.434;2024-03-22T14:39:49;13.10;99.90
20479;DHT22;10398;52.490;13.434;2024-03-22T14:42:14;13.10;99.90
20479;DHT22;10398;52.490;13.434;2024-03-22T14:44:40;13.10;99.90
20479;DHT22;10398;52.490;13.434;2024-03-22T14:47:06;13.20;99.90
20479;DHT22;10398;52.490;13.434;2024-03-22T14:49:32;13.20;99.90
20479;DHT22;10398;52.490;13.434;2024-03-22T14:51:57;13.20;99.90
20479;DHT22;10398;52.490;13.434;2024-03-22T14:54:23;13.10;99.90
20479;DHT22;10398;52.490;13.434;2024-03-22T14:56:49;13.10;99.90
20479;DHT22;10398;52.490;13.434;2024-03-22T14:59:15;13.00;99.90
20479;DHT22;10398;52.490;13.434;2024-03-22T15:01:40;13.00;99.90
20479;DHT22;10398;52.490;13.434;2024-03-22T15:04:06;12.90;99.90
20479;DHT22;10398;52.490;13.434;2024-03-22T15:06:32;12.90;99.90
20479;DHT22;10398;52.490;13.434;2024-03-22T15:08:57;12.90;99.90
20479;DHT22;10398;52.490;13.434;2024-03-22T15:11:24;12.90;99.90